sensor_id;sensor_type;location;lat;lon;timestamp;pressure;altitude;pressure_sealevel;temperature;humidity
40155;BME280;25875;48.202;16.334;2023-03-02T00:02:14;99465.03;;;2.95;50.99
40155;BME280;25875;48.202;16.334;2023-03-02T00:04:45;99670.00;;;4.22;51.14
40155;BME280;25875;48.202;16.334;2023-03-02T00:07:18;99727.75;;;4.56;51.03
40155;BME280;25875;48.202;16.334;2023-03-02T00:09:46;99720.78;;;4.55;51.09
40155;BME280;25875;48.202;16.334;2023-03-02T00:12:13;99712.06;;;4.54;50.98
40155;BME280;25875;48.202;16.334;2023-03-02T00:14:42;99708.53;;;4.55;51.06
40155;BME280;25875;48.202;16.334;2023-03-02T00:17:09;99710.28;;;4.55;51.00
40155;BME280;25875;48.202;16.334;2023-03-02T00:19:36;99710.28;;;4.55;51.13
40155;BME280;25875;48.202;16.334;2023-03-02T00:22:03;99704.19;;;4.54;50.92
40155;BME280;25875;48.202;16.334;2023-03-02T00:24:30;99697.16;;;4.55;50.96
40155;BME280;25875;48.202;16.334;2023-03-02T00:26:57;99607.53;;;4.00;51.00
40155;BME280;25875;48.202;16.334;2023-03-02T00:29:24;99708.41;;;4.60;51.08
40155;BME280;25875;48.202;16.334;2023-03-02T00:31:53;99720.72;;;4.58;51.15
40155;BME280;25875;48.202;16.334;2023-03-02T00:34:20;99703.19;;;4.58;50.97
40155;BME280;25875;48.202;16.334;2023-03-02T00:36:46;99701.44;;;4.59;50.97
40155;BME280;25875;48.202;16.334;2023-03-02T00:39:15;99664.38;;;4.37;51.07
40155;BME280;25875;48.202;16.334;2023-03-02T00:41:46;99655.59;;;4.38;50.99
40155;BME280;25875;48.202;16.334;2023-03-02T00:44:14;99685.78;;;4.56;51.00
40155;BME280;25875;48.202;16.334;2023-03-02T00:46:42;99545.44;;;3.67;50.94
40155;BME280;25875;48.202;16.334;2023-03-02T00:49:11;99659.03;;;4.40;51.09
40155;BME280;25875;48.202;16.334;2023-03-02T00:51:38;99646.81;;;4.39;51.35
40155;BME280;25875;48.202;16.334;2023-03-02T00:54:09;99647.81;;;4.35;51.08
40155;BME280;25875;48.202;16.334;2023-03-02T00:56:36;99682.28;;;4.55;51.12
40155;BME280;25875;48.202;16.334;2023-03-02T00:59:03;99682.31;;;4.54;51.14
40155;BME280;25875;48.202;16.334;2023-03-02T01:01:31;99451.69;;;3.07;51.10
40155;BME280;25875;48.202;16.334;2023-03-02T01:03:58;99677.06;;;4.54;51.31
40155;BME280;25875;48.202;16.334;2023-03-02T01:06:26;99672.69;;;4.54;51.21
40155;BME280;25875;48.202;16.334;2023-03-02T01:08:53;99666.50;;;4.57;51.19
40155;BME280;25875;48.202;16.334;2023-03-02T01:11:21;99667.44;;;4.54;51.13
40155;BME280;25875;48.202;16.334;2023-03-02T01:13:49;99617.28;;;4.31;50.97
40155;BME280;25875;48.202;16.334;2023-03-02T01:16:19;99658.72;;;4.52;50.92
40155;BME280;25875;48.202;16.334;2023-03-02T01:18:46;99566.72;;;3.90;51.08
40155;BME280;25875;48.202;16.334;2023-03-02T01:21:14;99651.72;;;4.53;51.07
40155;BME280;25875;48.202;16.334;2023-03-02T01:23:43;99624.69;;;4.13;51.17
40155;BME280;25875;48.202;16.334;2023-03-02T01:26:09;99584.59;;;4.08;51.15
40155;BME280;25875;48.202;16.334;2023-03-02T01:28:36;99644.13;;;4.42;51.33
40155;BME280;25875;48.202;16.334;2023-03-02T01:31:03;99646.75;;;4.42;51.27
40155;BME280;25875;48.202;16.334;2023-03-02T01:33:31;99589.97;;;4.04;51.06
40155;BME280;25875;48.202;16.334;2023-03-02T01:35:58;99640.59;;;4.43;51.17
40155;BME280;25875;48.202;16.334;2023-03-02T01:38:24;99637.97;;;4.43;51.22
40155;BME280;25875;48.202;16.334;2023-03-02T01:40:53;99634.56;;;4.39;51.21
40155;BME280;25875;48.202;16.334;2023-03-02T01:43:20;99636.28;;;4.40;51.28
40155;BME280;25875;48.202;16.334;2023-03-02T01:45:52;99519.91;;;3.75;51.30
40155;BME280;25875;48.202;16.334;2023-03-02T01:48:22;99467.50;;;3.39;51.25
40155;BME280;25875;48.202;16.334;2023-03-02T01:50:53;99608.81;;;4.20;51.24
40155;BME280;25875;48.202;16.334;2023-03-02T01:53:22;99557.94;;;3.91;51.21
40155;BME280;25875;48.202;16.334;2023-03-02T01:55:52;99637.19;;;4.39;51.34
40155;BME280;25875;48.202;16.334;2023-03-02T01:58:20;99481.16;;;3.52;51.14
40155;BME280;25875;48.202;16.334;2023-03-02T02:00:47;99612.91;;;4.31;51.10
40155;BME280;25875;48.202;16.334;2023-03-02T02:03:17;99649.38;;;4.42;51.16
40155;BME280;25875;48.202;16.334;2023-03-02T02:05:55;99594.81;;;4.21;51.17
40155;BME280;25875;48.202;16.334;2023-03-02T02:08:25;99637.97;;;4.43;50.93
40155;BME280;25875;48.202;16.334;2023-03-02T02:10:54;99640.69;;;4.40;50.97
40155;BME280;25875;48.202;16.334;2023-03-02T02:13:21;99638.91;;;4.40;50.94
40155;BME280;25875;48.202;16.334;2023-03-02T02:15:47;99638.06;;;4.40;51.17
40155;BME280;25875;48.202;16.334;2023-03-02T02:18:14;99556.06;;;3.96;51.23
40155;BME280;25875;48.202;16.334;2023-03-02T02:20:43;99625.88;;;4.37;51.14
40155;BME280;25875;48.202;16.334;2023-03-02T02:23:22;99624.19;;;4.35;51.20
40155;BME280;25875;48.202;16.334;2023-03-02T02:26:14;99580.19;;;4.10;51.27
40155;BME280;25875;48.202;16.334;2023-03-02T02:28:46;99621.81;;;4.26;51.33
40155;BME280;25875;48.202;16.334;2023-03-02T02:31:18;99622.69;;;4.25;51.44
40155;BME280;25875;48.202;16.334;2023-03-02T02:33:50;99610.53;;;4.22;51.47
40155;BME280;25875;48.202;16.334;2023-03-02T02:36:20;99625.41;;;4.22;51.51
40155;BME280;25875;48.202;16.334;2023-03-02T02:38:50;99608.72;;;4.24;51.39
40155;BME280;25875;48.202;16.334;2023-03-02T02:41:21;99613.09;;;4.24;51.37
40155;BME280;25875;48.202;16.334;2023-03-02T02:43:50;99614.03;;;4.21;51.51
40155;BME280;25875;48.202;16.334;2023-03-02T02:46:17;99621.06;;;4.21;51.53
40155;BME280;25875;48.202;16.334;2023-03-02T02:48:43;99618.44;;;4.19;51.58
40155;BME280;25875;48.202;16.334;2023-03-02T02:51:14;99573.63;;;3.93;51.42
40155;BME280;25875;48.202;16.334;2023-03-02T02:53:48;99617.69;;;4.14;51.60
40155;BME280;25875;48.202;16.334;2023-03-02T02:56:16;99617.72;;;4.12;51.59
40155;BME280;25875;48.202;16.334;2023-03-02T02:58:47;99626.47;;;4.13;51.56
40155;BME280;25875;48.202;16.334;2023-03-02T03:01:17;99539.44;;;3.62;51.52
40155;BME280;25875;48.202;16.334;2023-03-02T03:03:49;99623.88;;;4.11;51.67
40155;BME280;25875;48.202;16.334;2023-03-02T03:06:18;99627.44;;;4.09;51.72
40155;BME280;25875;48.202;16.334;2023-03-02T03:08:59;99618.75;;;4.07;52.10
40155;BME280;25875;48.202;16.334;2023-03-02T03:11:28;99619.72;;;4.03;51.73
40155;BME280;25875;48.202;16.334;2023-03-02T03:14:18;99620.69;;;3.99;51.91
40155;BME280;25875;48.202;16.334;2023-03-02T03:16:48;99489.25;;;3.04;52.00
40155;BME280;25875;48.202;16.334;2023-03-02T03:19:18;99622.59;;;3.92;51.93
40155;BME280;25875;48.202;16.334;2023-03-02T03:21:48;99635.75;;;3.91;51.77
40155;BME280;25875;48.202;16.334;2023-03-02T03:24:15;99623.59;;;3.87;52.00
40155;BME280;25875;48.202;16.334;2023-03-02T03:26:43;99622.75;;;3.86;52.19
40155;BME280;25875;48.202;16.334;2023-03-02T03:29:12;99624.53;;;3.84;52.13
40155;BME280;25875;48.202;16.334;2023-03-02T03:31:40;99630.66;;;3.84;52.19
40155;BME280;25875;48.202;16.334;2023-03-02T03:34:07;99552.16;;;3.41;52.32
40155;BME280;25875;48.202;16.334;2023-03-02T03:36:37;99523.00;;;3.18;52.29
40155;BME280;25875;48.202;16.334;2023-03-02T03:39:04;99619.44;;;3.78;52.21
40155;BME280;25875;48.202;16.334;2023-03-02T03:41:31;99619.50;;;3.75;52.27
40155;BME280;25875;48.202;16.334;2023-03-02T03:43:58;99482.38;;;3.00;52.30
40155;BME280;25875;48.202;16.334;2023-03-02T03:46:27;99623.00;;;3.75;52.46
40155;BME280;25875;48.202;16.334;2023-03-02T03:48:54;99432.63;;;2.62;52.41
40155;BME280;25875;48.202;16.334;2023-03-02T03:51:26;99610.81;;;3.73;52.41
40155;BME280;25875;48.202;16.334;2023-03-02T03:53:57;99520.53;;;3.12;52.43
40155;BME280;25875;48.202;16.334;2023-03-02T03:56:28;99613.59;;;3.67;52.38
40155;BME280;25875;48.202;16.334;2023-03-02T03:58:55;99613.59;;;3.67;52.47
40155;BME280;25875;48.202;16.334;2023-03-02T04:01:34;99621.50;;;3.64;52.46
40155;BME280;25875;48.202;16.334;2023-03-02T04:04:02;99631.22;;;3.60;52.36
40155;BME280;25875;48.202;16.334;2023-03-02T04:06:29;99605.94;;;3.58;52.55
40155;BME280;25875;48.202;16.334;2023-03-02T04:08:56;99605.09;;;3.56;52.57
40155;BME280;25875;48.202;16.334;2023-03-02T04:11:29;99604.22;;;3.57;52.47
40155;BME280;25875;48.202;16.334;2023-03-02T04:13:56;99594.69;;;3.52;52.60
40155;BME280;25875;48.202;16.334;2023-03-02T04:16:23;99474.13;;;2.78;52.70
40155;BME280;25875;48.202;16.334;2023-03-02T04:18:51;99601.72;;;3.50;52.63
40155;BME280;25875;48.202;16.334;2023-03-02T04:21:18;99603.53;;;3.48;52.70
40155;BME280;25875;48.202;16.334;2023-03-02T04:23:45;99118.78;;;0.66;52.62
40155;BME280;25875;48.202;16.334;2023-03-02T04:26:12;99605.34;;;3.45;52.75
40155;BME280;25875;48.202;16.334;2023-03-02T04:28:38;99526.78;;;3.05;52.78
40155;BME280;25875;48.202;16.334;2023-03-02T04:31:05;99598.41;;;3.42;52.76
40155;BME280;25875;48.202;16.334;2023-03-02T04:33:32;99592.31;;;3.42;52.82
40155;BME280;25875;48.202;16.334;2023-03-02T04:36:00;99529.50;;;3.00;52.71
40155;BME280;25875;48.202;16.334;2023-03-02T04:38:27;99597.63;;;3.39;52.91
40155;BME280;25875;48.202;16.334;2023-03-02T04:40:54;99606.41;;;3.36;53.00
40155;BME280;25875;48.202;16.334;2023-03-02T04:43:21;99624.00;;;3.31;52.70
40155;BME280;25875;48.202;16.334;2023-03-02T04:45:48;99602.19;;;3.29;53.00
40155;BME280;25875;48.202;16.334;2023-03-02T04:48:15;99611.03;;;3.25;53.32
40155;BME280;25875;48.202;16.334;2023-03-02T04:50:42;99607.50;;;3.26;53.26
40155;BME280;25875;48.202;16.334;2023-03-02T04:53:10;99609.19;;;3.29;53.24
40155;BME280;25875;48.202;16.334;2023-03-02T04:55:37;99613.66;;;3.25;53.29
40155;BME280;25875;48.202;16.334;2023-03-02T04:58:04;99608.44;;;3.24;53.39
40155;BME280;25875;48.202;16.334;2023-03-02T05:00:31;99178.66;;;0.72;53.52
40155;BME280;25875;48.202;16.334;2023-03-02T05:02:59;99599.88;;;3.15;54.00
40155;BME280;25875;48.202;16.334;2023-03-02T05:05:27;99528.59;;;2.61;53.57
40155;BME280;25875;48.202;16.334;2023-03-02T05:07:54;99601.56;;;3.18;53.57
40155;BME280;25875;48.202;16.334;2023-03-02T05:10:25;99561.91;;;2.95;53.98
40155;BME280;25875;48.202;16.334;2023-03-02T05:12:52;99599.34;;;3.00;53.59
40155;BME280;25875;48.202;16.334;2023-03-02T05:15:23;99609.44;;;3.18;53.70
40155;BME280;25875;48.202;16.334;2023-03-02T05:17:50;99606.00;;;3.14;53.73
40155;BME280;25875;48.202;16.334;2023-03-02T05:20:18;99603.47;;;3.11;53.98
40155;BME280;25875;48.202;16.334;2023-03-02T05:22:45;99535.31;;;2.73;53.94
40155;BME280;25875;48.202;16.334;2023-03-02T05:25:12;99601.78;;;3.07;53.85
40155;BME280;25875;48.202;16.334;2023-03-02T05:27:42;99598.34;;;3.05;54.20
40155;BME280;25875;48.202;16.334;2023-03-02T05:30:10;99598.31;;;3.07;53.93
40155;BME280;25875;48.202;16.334;2023-03-02T05:32:37;99605.28;;;3.08;54.18
40155;BME280;25875;48.202;16.334;2023-03-02T05:35:05;99610.53;;;3.06;54.05
40155;BME280;25875;48.202;16.334;2023-03-02T05:37:31;99605.38;;;3.03;54.33
40155;BME280;25875;48.202;16.334;2023-03-02T05:39:58;99604.53;;;3.01;54.39
40155;BME280;25875;48.202;16.334;2023-03-02T05:42:25;99523.47;;;2.55;54.15
40155;BME280;25875;48.202;16.334;2023-03-02T05:44:53;99600.16;;;3.02;54.47
40155;BME280;25875;48.202;16.334;2023-03-02T05:47:20;99600.22;;;2.99;54.52
40155;BME280;25875;48.202;16.334;2023-03-02T05:49:50;99598.50;;;2.98;54.55
40155;BME280;25875;48.202;16.334;2023-03-02T05:52:18;99603.78;;;2.96;54.62
40155;BME280;25875;48.202;16.334;2023-03-02T05:54:45;99595.91;;;2.96;54.86
40155;BME280;25875;48.202;16.334;2023-03-02T05:57:12;99593.44;;;2.90;54.81
40155;BME280;25875;48.202;16.334;2023-03-02T05:59:38;99609.03;;;2.95;54.82
40155;BME280;25875;48.202;16.334;2023-03-02T06:02:06;99614.28;;;2.95;54.93
40155;BME280;25875;48.202;16.334;2023-03-02T06:04:33;99613.41;;;2.94;54.88
40155;BME280;25875;48.202;16.334;2023-03-02T06:07:08;99610.81;;;2.93;55.01
40155;BME280;25875;48.202;16.334;2023-03-02T06:09:35;99618.69;;;2.93;55.04
40155;BME280;25875;48.202;16.334;2023-03-02T06:12:03;99620.44;;;2.92;55.26
40155;BME280;25875;48.202;16.334;2023-03-02T06:14:30;99541.88;;;2.50;55.09
40155;BME280;25875;48.202;16.334;2023-03-02T06:16:56;99621.25;;;2.96;55.13
40155;BME280;25875;48.202;16.334;2023-03-02T06:19:24;99628.25;;;2.94;55.31
40155;BME280;25875;48.202;16.334;2023-03-02T06:21:51;99628.25;;;2.94;55.02
40155;BME280;25875;48.202;16.334;2023-03-02T06:24:18;99626.50;;;2.94;54.71
40155;BME280;25875;48.202;16.334;2023-03-02T06:26:45;99634.34;;;2.96;54.49
40155;BME280;25875;48.202;16.334;2023-03-02T06:29:12;99046.06;;;-0.50;54.43
40155;BME280;25875;48.202;16.334;2023-03-02T06:31:38;99631.72;;;2.96;54.31
40155;BME280;25875;48.202;16.334;2023-03-02T06:34:05;99627.28;;;2.99;54.28
40155;BME280;25875;48.202;16.334;2023-03-02T06:36:33;99632.47;;;3.01;54.40
40155;BME280;25875;48.202;16.334;2023-03-02T06:39:03;99631.56;;;3.03;54.11
40155;BME280;25875;48.202;16.334;2023-03-02T06:41:30;99578.97;;;2.72;54.00
40155;BME280;25875;48.202;16.334;2023-03-02T06:43:57;99629.78;;;3.05;54.25
40155;BME280;25875;48.202;16.334;2023-03-02T06:46:24;99537.63;;;2.45;54.51
40155;BME280;25875;48.202;16.334;2023-03-02T06:48:51;99627.91;;;3.10;54.08
40155;BME280;25875;48.202;16.334;2023-03-02T06:51:18;99627.81;;;3.15;54.01
40155;BME280;25875;48.202;16.334;2023-03-02T06:53:46;99639.16;;;3.15;54.00
40155;BME280;25875;48.202;16.334;2023-03-02T06:56:13;99636.50;;;3.17;53.98
40155;BME280;25875;48.202;16.334;2023-03-02T06:58:40;99644.25;;;3.23;53.83
40155;BME280;25875;48.202;16.334;2023-03-02T07:01:06;99639.72;;;3.31;53.65
40155;BME280;25875;48.202;16.334;2023-03-02T07:03:33;99631.50;;;3.46;53.36
40155;BME280;25875;48.202;16.334;2023-03-02T07:06:01;99035.59;;;0.06;52.66
40155;BME280;25875;48.202;16.334;2023-03-02T07:08:28;99646.47;;;3.80;52.40
40155;BME280;25875;48.202;16.334;2023-03-02T07:10:57;99638.28;;;3.94;52.19
40155;BME280;25875;48.202;16.334;2023-03-02T07:13:23;99645.75;;;4.10;51.82
40155;BME280;25875;48.202;16.334;2023-03-02T07:15:50;99646.22;;;4.28;51.53
40155;BME280;25875;48.202;16.334;2023-03-02T07:18:17;99648.44;;;4.44;51.02
40155;BME280;25875;48.202;16.334;2023-03-02T07:20:44;99582.38;;;4.29;50.53
40155;BME280;25875;48.202;16.334;2023-03-02T07:23:11;99648.31;;;4.81;50.31
40155;BME280;25875;48.202;16.334;2023-03-02T07:25:38;99640.91;;;4.97;50.39
40155;BME280;25875;48.202;16.334;2023-03-02T07:28:06;99635.19;;;5.14;49.88
40155;BME280;25875;48.202;16.334;2023-03-02T07:30:33;99633.84;;;5.30;49.68
40155;BME280;25875;48.202;16.334;2023-03-02T07:33:00;99633.63;;;5.38;49.02
40155;BME280;25875;48.202;16.334;2023-03-02T07:35:26;99637.72;;;5.47;48.74
40155;BME280;25875;48.202;16.334;2023-03-02T07:37:53;99633.81;;;5.60;48.60
40155;BME280;25875;48.202;16.334;2023-03-02T07:40:20;99606.81;;;5.55;48.61
40155;BME280;25875;48.202;16.334;2023-03-02T07:42:46;99637.31;;;5.88;48.15
40155;BME280;25875;48.202;16.334;2023-03-02T07:45:15;99643.16;;;5.98;47.88
40155;BME280;25875;48.202;16.334;2023-03-02T07:47:44;99627.78;;;6.12;48.08
40155;BME280;25875;48.202;16.334;2023-03-02T07:50:11;99635.03;;;6.32;47.69
40155;BME280;25875;48.202;16.334;2023-03-02T07:52:38;99637.03;;;6.50;47.50
40155;BME280;25875;48.202;16.334;2023-03-02T07:55:06;99591.03;;;6.35;46.99
40155;BME280;25875;48.202;16.334;2023-03-02T07:57:33;99624.94;;;6.69;47.21
40155;BME280;25875;48.202;16.334;2023-03-02T08:00:00;99632.22;;;6.88;46.74
40155;BME280;25875;48.202;16.334;2023-03-02T08:02:29;99623.72;;;7.04;46.67
40155;BME280;25875;48.202;16.334;2023-03-02T08:04:58;99624.00;;;7.20;46.53
40155;BME280;25875;48.202;16.334;2023-03-02T08:07:25;99625.19;;;7.36;46.44
40155;BME280;25875;48.202;16.334;2023-03-02T08:09:52;99624.59;;;7.52;46.30
40155;BME280;25875;48.202;16.334;2023-03-02T08:12:18;99627.34;;;7.72;46.05
40155;BME280;25875;48.202;16.334;2023-03-02T08:14:46;99621.38;;;7.89;45.81
40155;BME280;25875;48.202;16.334;2023-03-02T08:17:13;99574.13;;;7.83;45.48
40155;BME280;25875;48.202;16.334;2023-03-02T08:19:41;99614.59;;;8.25;45.23
40155;BME280;25875;48.202;16.334;2023-03-02T08:22:08;99607.41;;;8.29;44.64
40155;BME280;25875;48.202;16.334;2023-03-02T08:24:35;99608.34;;;8.28;44.87
40155;BME280;25875;48.202;16.334;2023-03-02T08:27:02;99540.50;;;7.88;44.76
40155;BME280;25875;48.202;16.334;2023-03-02T08:29:31;99575.41;;;8.37;44.65
40155;BME280;25875;48.202;16.334;2023-03-02T08:31:59;99521.34;;;8.25;44.40
40155;BME280;25875;48.202;16.334;2023-03-02T08:34:26;99594.06;;;8.93;44.18
40155;BME280;25875;48.202;16.334;2023-03-02T08:36:55;99595.94;;;9.10;43.55
40155;BME280;25875;48.202;16.334;2023-03-02T08:39:22;99596.22;;;9.24;43.50
40155;BME280;25875;48.202;16.334;2023-03-02T08:41:49;99586.69;;;9.40;43.18
40155;BME280;25875;48.202;16.334;2023-03-02T08:44:17;99588.97;;;9.48;42.67
40155;BME280;25875;48.202;16.334;2023-03-02T08:46:45;99587.38;;;9.62;42.74
40155;BME280;25875;48.202;16.334;2023-03-02T08:49:13;99588.50;;;9.76;42.55
40155;BME280;25875;48.202;16.334;2023-03-02T08:51:40;99588.28;;;9.80;41.76
40155;BME280;25875;48.202;16.334;2023-03-02T08:54:11;99581.91;;;9.84;41.67
40155;BME280;25875;48.202;16.334;2023-03-02T08:56:40;99583.56;;;9.87;41.83
40155;BME280;25875;48.202;16.334;2023-03-02T08:59:11;99498.88;;;9.51;41.76
40155;BME280;25875;48.202;16.334;2023-03-02T09:01:39;99591.00;;;10.15;41.70
40155;BME280;25875;48.202;16.334;2023-03-02T09:04:07;99578.06;;;10.26;41.30
40155;BME280;25875;48.202;16.334;2023-03-02T09:06:36;99584.63;;;10.36;41.18
40155;BME280;25875;48.202;16.334;2023-03-02T09:09:04;99575.91;;;10.51;41.09
40155;BME280;25875;48.202;16.334;2023-03-02T09:11:33;99544.34;;;10.47;40.93
40155;BME280;25875;48.202;16.334;2023-03-02T09:14:00;99459.06;;;10.06;41.15
40155;BME280;25875;48.202;16.334;2023-03-02T09:16:27;99569.66;;;10.87;40.65
40155;BME280;25875;48.202;16.334;2023-03-02T09:18:54;99525.06;;;10.60;40.54
40155;BME280;25875;48.202;16.334;2023-03-02T09:21:22;99572.13;;;10.73;40.72
40155;BME280;25875;48.202;16.334;2023-03-02T09:23:49;99481.78;;;10.10;40.83
40155;BME280;25875;48.202;16.334;2023-03-02T09:26:18;99568.94;;;10.66;40.88
40155;BME280;25875;48.202;16.334;2023-03-02T09:28:46;99565.91;;;10.74;40.29
40155;BME280;25875;48.202;16.334;2023-03-02T09:31:13;99559.97;;;10.86;40.47
40155;BME280;25875;48.202;16.334;2023-03-02T09:33:41;99493.41;;;10.57;40.27
40155;BME280;25875;48.202;16.334;2023-03-02T09:36:18;99562.78;;;11.16;39.88
40155;BME280;25875;48.202;16.334;2023-03-02T09:38:46;99559.81;;;11.38;39.82
40155;BME280;25875;48.202;16.334;2023-03-02T09:41:27;99447.00;;;10.83;37.26
40155;BME280;25875;48.202;16.334;2023-03-02T09:44:12;99539.63;;;11.51;36.71
40155;BME280;25875;48.202;16.334;2023-03-02T09:46:46;99528.41;;;11.46;38.64
40155;BME280;25875;48.202;16.334;2023-03-02T09:49:24;99559.97;;;11.66;37.79
40155;BME280;25875;48.202;16.334;2023-03-02T09:52:04;99511.69;;;11.28;37.95
40155;BME280;25875;48.202;16.334;2023-03-02T09:54:37;99580.28;;;11.67;39.68
40155;BME280;25875;48.202;16.334;2023-03-02T09:57:18;99494.50;;;11.51;37.72
40155;BME280;25875;48.202;16.334;2023-03-02T09:59:52;99545.31;;;11.91;37.98
40155;BME280;25875;48.202;16.334;2023-03-02T10:02:23;99562.97;;;11.92;38.88
40155;BME280;25875;48.202;16.334;2023-03-02T10:04:54;99537.06;;;12.11;39.48
40155;BME280;25875;48.202;16.334;2023-03-02T10:07:26;99510.88;;;12.05;38.13
40155;BME280;25875;48.202;16.334;2023-03-02T10:09:54;99541.13;;;12.18;38.78
40155;BME280;25875;48.202;16.334;2023-03-02T10:12:45;99504.78;;;12.03;36.90
40155;BME280;25875;48.202;16.334;2023-03-02T10:15:18;99535.47;;;12.38;38.11
40155;BME280;25875;48.202;16.334;2023-03-02T10:17:55;99530.75;;;12.43;36.94
40155;BME280;25875;48.202;16.334;2023-03-02T10:20:29;99528.63;;;12.34;37.69
40155;BME280;25875;48.202;16.334;2023-03-02T10:23:04;99531.47;;;12.31;37.30
40155;BME280;25875;48.202;16.334;2023-03-02T10:25:42;99525.16;;;12.48;36.47
40155;BME280;25875;48.202;16.334;2023-03-02T10:28:16;99516.44;;;12.60;37.58
40155;BME280;25875;48.202;16.334;2023-03-02T10:30:48;99530.59;;;12.75;36.88
40155;BME280;25875;48.202;16.334;2023-03-02T10:33:18;99527.19;;;12.87;37.97
40155;BME280;25875;48.202;16.334;2023-03-02T10:35:49;99525.00;;;12.94;37.68
40155;BME280;25875;48.202;16.334;2023-03-02T10:38:18;99487.84;;;12.78;37.14
40155;BME280;25875;48.202;16.334;2023-03-02T10:40:46;99363.72;;;12.07;37.02
40155;BME280;25875;48.202;16.334;2023-03-02T10:43:17;99409.41;;;12.42;36.56
40155;BME280;25875;48.202;16.334;2023-03-02T10:45:57;99521.66;;;13.19;35.35
40155;BME280;25875;48.202;16.334;2023-03-02T10:48:24;99511.56;;;13.24;37.33
40155;BME280;25875;48.202;16.334;2023-03-02T10:50:52;99514.69;;;13.30;36.40
40155;BME280;25875;48.202;16.334;2023-03-02T10:53:19;99460.09;;;12.96;37.10
40155;BME280;25875;48.202;16.334;2023-03-02T10:55:47;99505.75;;;13.45;37.11
40155;BME280;25875;48.202;16.334;2023-03-02T10:58:21;99440.00;;;13.19;35.57
40155;BME280;25875;48.202;16.334;2023-03-02T11:00:59;99500.50;;;13.58;34.91
40155;BME280;25875;48.202;16.334;2023-03-02T11:03:27;99377.25;;;13.02;36.69
40155;BME280;25875;48.202;16.334;2023-03-02T11:05:54;99439.47;;;13.41;36.61
40155;BME280;25875;48.202;16.334;2023-03-02T11:08:23;99484.75;;;13.68;36.81
40155;BME280;25875;48.202;16.334;2023-03-02T11:10:53;99483.19;;;13.78;36.40
40155;BME280;25875;48.202;16.334;2023-03-02T11:13:25;99492.59;;;13.84;35.80
40155;BME280;25875;48.202;16.334;2023-03-02T11:15:55;99414.84;;;13.37;36.46
40155;BME280;25875;48.202;16.334;2023-03-02T11:18:30;99457.53;;;13.50;35.15
40155;BME280;25875;48.202;16.334;2023-03-02T11:21:01;99485.28;;;13.60;36.52
40155;BME280;25875;48.202;16.334;2023-03-02T11:23:39;99480.13;;;13.57;35.61
40155;BME280;25875;48.202;16.334;2023-03-02T11:26:18;99450.91;;;13.43;35.79
40155;BME280;25875;48.202;16.334;2023-03-02T11:28:51;99379.66;;;13.20;36.41
40155;BME280;25875;48.202;16.334;2023-03-02T11:31:25;99481.50;;;13.77;35.80
40155;BME280;25875;48.202;16.334;2023-03-02T11:37:05;99480.91;;;13.59;35.83
40155;BME280;25875;48.202;16.334;2023-03-02T11:39:57;99480.53;;;13.51;34.68
40155;BME280;25875;48.202;16.334;2023-03-02T11:42:29;99459.91;;;13.55;36.49
40155;BME280;25875;48.202;16.334;2023-03-02T11:45:01;99455.97;;;13.60;36.19
40155;BME280;25875;48.202;16.334;2023-03-02T11:47:31;99458.22;;;13.66;36.49
40155;BME280;25875;48.202;16.334;2023-03-02T11:50:04;99456.25;;;13.83;36.27
40155;BME280;25875;48.202;16.334;2023-03-02T11:52:37;99452.94;;;13.79;35.60
40155;BME280;25875;48.202;16.334;2023-03-02T11:55:14;99453.06;;;13.77;34.85
40155;BME280;25875;48.202;16.334;2023-03-02T11:57:46;99449.59;;;13.63;36.34
40155;BME280;25875;48.202;16.334;2023-03-02T12:00:23;99378.25;;;13.14;35.29
40155;BME280;25875;48.202;16.334;2023-03-02T12:03:04;99362.88;;;13.05;34.81
40155;BME280;25875;48.202;16.334;2023-03-02T12:05:34;99439.19;;;13.45;36.60
40155;BME280;25875;48.202;16.334;2023-03-02T12:08:07;99446.34;;;13.45;35.63
40155;BME280;25875;48.202;16.334;2023-03-02T12:10:58;99405.91;;;13.11;36.36
40155;BME280;25875;48.202;16.334;2023-03-02T12:13:27;99431.78;;;13.36;35.83
40155;BME280;25875;48.202;16.334;2023-03-02T12:15:54;99422.56;;;13.42;36.00
40155;BME280;25875;48.202;16.334;2023-03-02T12:18:43;99422.91;;;13.50;33.59
40155;BME280;25875;48.202;16.334;2023-03-02T12:21:13;99420.91;;;13.54;35.33
40155;BME280;25875;48.202;16.334;2023-03-02T12:23:56;99415.50;;;13.41;32.62
40155;BME280;25875;48.202;16.334;2023-03-02T12:26:28;99395.91;;;13.15;34.70
40155;BME280;25875;48.202;16.334;2023-03-02T12:28:59;99382.81;;;13.12;35.23
40155;BME280;25875;48.202;16.334;2023-03-02T12:31:43;99406.63;;;13.28;33.10
40155;BME280;25875;48.202;16.334;2023-03-02T12:34:34;99408.03;;;13.33;32.49
40155;BME280;25875;48.202;16.334;2023-03-02T12:37:10;99412.16;;;13.25;34.04
40155;BME280;25875;48.202;16.334;2023-03-02T12:40:13;99406.66;;;13.13;33.92
40155;BME280;25875;48.202;16.334;2023-03-02T12:42:54;99408.28;;;13.16;35.14
40155;BME280;25875;48.202;16.334;2023-03-02T12:45:39;99404.59;;;13.04;34.74
40155;BME280;25875;48.202;16.334;2023-03-02T12:48:21;99403.19;;;12.99;33.18
40155;BME280;25875;48.202;16.334;2023-03-02T12:50:53;99318.84;;;12.45;34.51
40155;BME280;25875;48.202;16.334;2023-03-02T12:53:21;99400.25;;;12.89;35.12
40155;BME280;25875;48.202;16.334;2023-03-02T12:55:49;99387.72;;;12.91;34.39
40155;BME280;25875;48.202;16.334;2023-03-02T12:58:18;99387.16;;;12.86;34.83
40155;BME280;25875;48.202;16.334;2023-03-02T13:00:50;99388.66;;;12.90;33.93
40155;BME280;25875;48.202;16.334;2023-03-02T13:03:17;99382.97;;;12.96;35.14
40155;BME280;25875;48.202;16.334;2023-03-02T13:05:45;99266.59;;;12.32;34.70
40155;BME280;25875;48.202;16.334;2023-03-02T13:08:16;99291.91;;;12.37;33.35
40155;BME280;25875;48.202;16.334;2023-03-02T13:10:49;99290.97;;;12.38;34.24
40155;BME280;25875;48.202;16.334;2023-03-02T13:13:19;99389.53;;;12.91;34.68
40155;BME280;25875;48.202;16.334;2023-03-02T13:15:48;99363.78;;;12.91;33.89